Get Adobe Flash player

Seitennavigation

Webcam Flugfeld LOAR

 Dankeschön!

 

Wir bedanken uns sehr herzlich bei allen,
die uns an den letzen zwei Tagen besucht haben
und uns damit ihre Verbundenheit mit dem
was wir sind und mit dem was wir machen
gezeigt haben! Danke!

 

Genauso bedanken wir uns bei unseren Vereins-
mitgliedern und ihren Angehörigen bzw. allen
die dazu beigetragen haben damit dieses
Fest stattfinden konnte.
Es wurden hier tolle Leistungen von jedem
einzelnen erbracht.


Fotos unseres Festes online!

 
Samstag 3.9.                Sonntag 4.9.


 

Gäste online

Aktuell sind 9 Gäste und keine Mitglieder online

Sonnenaufgang Sonnenuntergang

Sun 25 Sep
Sunrise 06:43
Sunset 18:44

Aviation WX

[Quelle: ADDS]
METAR
LOWW 250820Z VRB03KT CAVOK 15/10 Q1023 NOSIG =
TAF
LOWW 250515Z 2506/2612 VRB02KT 5000 BR NSC TX22/2513Z TN09/2602Z BECMG 2507/2509 12005KT CAVOK =